CFG1388 EDDH-LGKL
Flight info
| Callsign | CFG1388 |
|---|---|
| Flight time | N/A |
| Altitude | 23000 |
| Route | RAMAR6B/23 RAMAR Z998 NUSGU/N0448F330 Z998 RATMO DCT GODUR Z998 OSKAN DCT HDO DCT ODNEM DCT BERVA DCT BABIT DCT OKTAS DCT REDVA UL616 KOGAT DCT GOSTI DCT BITLA DCT IPTES UL604 TRL UY115 IPTAG |
| Aircraft | A21N/M-SBDE3FGHIJ1J4J7LORVWXYZ/SB2D1G1 |
Departure
| Time | N/A |
|---|---|
| Airport | Hamburg Helmut Schmidt Airport (EDDH) |
Arrival
| Time | 2026-05-03 20:55 |
|---|---|
| Airport | Kalamata Airport (LGKL) |
| Time | Latitude | Longitude | Altitude | Speed | Heading |
|---|---|---|---|---|---|
| 2026-05-03 20:15 | 40.53281 | 21.37891 | 33112 ft | 516 kts | 176° |
| 2026-05-03 20:15 | 40.46108 | 21.38325 | 33104 ft | 516 kts | 176° |
| 2026-05-03 20:16 | 40.38902 | 21.38756 | 33098 ft | 518 kts | 176° |
| 2026-05-03 20:16 | 40.31718 | 21.39199 | 33099 ft | 517 kts | 176° |
| 2026-05-03 20:17 | 40.24536 | 21.39642 | 33092 ft | 516 kts | 176° |
| 2026-05-03 20:17 | 40.17361 | 21.40079 | 33094 ft | 516 kts | 176° |
| 2026-05-03 20:18 | 40.10171 | 21.40512 | 33091 ft | 517 kts | 177° |
| 2026-05-03 20:18 | 40.02977 | 21.40947 | 33101 ft | 517 kts | 177° |
| 2026-05-03 20:19 | 39.95775 | 21.41378 | 33104 ft | 517 kts | 177° |
| 2026-05-03 20:19 | 39.88587 | 21.41803 | 33114 ft | 517 kts | 177° |
| 2026-05-03 20:20 | 39.81344 | 21.42233 | 33126 ft | 524 kts | 178° |
| 2026-05-03 20:20 | 39.74031 | 21.42678 | 33125 ft | 523 kts | 178° |
| 2026-05-03 20:21 | 39.66786 | 21.43117 | 33127 ft | 525 kts | 178° |
| 2026-05-03 20:21 | 39.59432 | 21.43559 | 33130 ft | 525 kts | 178° |
| 2026-05-03 20:22 | 39.52177 | 21.43991 | 33125 ft | 525 kts | 178° |
| 2026-05-03 20:22 | 39.44834 | 21.44425 | 33127 ft | 525 kts | 178° |
| 2026-05-03 20:23 | 39.37535 | 21.44857 | 33118 ft | 525 kts | 178° |
| 2026-05-03 20:23 | 39.30276 | 21.45287 | 33116 ft | 526 kts | 179° |
| 2026-05-03 20:24 | 39.22908 | 21.45722 | 33104 ft | 526 kts | 179° |
| 2026-05-03 20:24 | 39.15595 | 21.46155 | 33112 ft | 526 kts | 179° |
| 2026-05-03 20:25 | 39.08339 | 21.46581 | 33098 ft | 525 kts | 179° |
| 2026-05-03 20:25 | 39.01040 | 21.47008 | 33096 ft | 525 kts | 179° |
| 2026-05-03 20:26 | 38.93747 | 21.47435 | 33082 ft | 523 kts | 179° |
| 2026-05-03 20:26 | 38.87659 | 21.47795 | 33055 ft | 522 kts | 180° |
| 2026-05-03 20:27 | 38.80417 | 21.48217 | 33079 ft | 521 kts | 180° |
| 2026-05-03 20:27 | 38.73164 | 21.48835 | 33074 ft | 524 kts | 172° |
| 2026-05-03 20:27 | 38.69626 | 21.49970 | 33070 ft | 525 kts | 160° |
| 2026-05-03 20:28 | 38.66291 | 21.51848 | 33077 ft | 524 kts | 152° |
| 2026-05-03 20:28 | 38.59864 | 21.56256 | 33086 ft | 524 kts | 150° |
| 2026-05-03 20:29 | 38.53413 | 21.60612 | 33084 ft | 524 kts | 151° |
| 2026-05-03 20:29 | 38.46926 | 21.64891 | 33078 ft | 525 kts | 151° |
| 2026-05-03 20:30 | 38.40435 | 21.69161 | 33056 ft | 525 kts | 152° |
| 2026-05-03 20:30 | 38.33933 | 21.73436 | 33083 ft | 526 kts | 152° |
| 2026-05-03 20:31 | 38.27378 | 21.77734 | 33083 ft | 527 kts | 152° |
| 2026-05-03 20:31 | 38.20937 | 21.81957 | 33097 ft | 518 kts | 152° |
| 2026-05-03 20:32 | 38.14488 | 21.86166 | 33049 ft | 518 kts | 153° |
| 2026-05-03 20:32 | 38.08098 | 21.90333 | 33054 ft | 515 kts | 153° |
| 2026-05-03 20:33 | 38.01680 | 21.94514 | 32777 ft | 521 kts | 153° |
| 2026-05-03 20:33 | 37.98439 | 21.96622 | 32376 ft | 525 kts | 153° |
| 2026-05-03 20:33 | 37.95183 | 21.98737 | 31676 ft | 525 kts | 152° |
| 2026-05-03 20:33 | 37.91930 | 22.00844 | 30876 ft | 526 kts | 153° |
| 2026-05-03 20:34 | 37.88669 | 22.02957 | 30034 ft | 527 kts | 153° |
| 2026-05-03 20:34 | 37.85399 | 22.05071 | 29096 ft | 527 kts | 153° |
| 2026-05-03 20:34 | 37.82137 | 22.07181 | 28349 ft | 527 kts | 153° |
| 2026-05-03 20:34 | 37.78878 | 22.09289 | 27677 ft | 524 kts | 153° |
| 2026-05-03 20:35 | 37.75637 | 22.11384 | 26997 ft | 521 kts | 153° |
| 2026-05-03 20:35 | 37.72413 | 22.13464 | 26353 ft | 520 kts | 153° |
| 2026-05-03 20:35 | 37.69201 | 22.15533 | 25661 ft | 518 kts | 153° |
| 2026-05-03 20:35 | 37.65958 | 22.17622 | 24982 ft | 515 kts | 153° |
| 2026-05-03 20:36 | 37.62806 | 22.19646 | 24305 ft | 513 kts | 154° |
| 2026-05-03 20:36 | 37.59637 | 22.21679 | 23594 ft | 510 kts | 154° |
| 2026-05-03 20:36 | 37.56481 | 22.23708 | 22810 ft | 504 kts | 154° |
| 2026-05-03 20:36 | 37.53392 | 22.25691 | 22116 ft | 495 kts | 154° |
| 2026-05-03 20:37 | 37.50347 | 22.27638 | 21505 ft | 485 kts | 154° |
| 2026-05-03 20:37 | 37.47354 | 22.29497 | 20902 ft | 474 kts | 158° |
| 2026-05-03 20:37 | 37.44270 | 22.30734 | 20264 ft | 459 kts | 173° |
| 2026-05-03 20:37 | 37.41151 | 22.31043 | 19679 ft | 443 kts | 187° |
| 2026-05-03 20:38 | 37.38133 | 22.30475 | 19125 ft | 424 kts | 201° |
| 2026-05-03 20:38 | 37.35434 | 22.29182 | 18623 ft | 406 kts | 213° |
| 2026-05-03 20:38 | 37.33093 | 22.27332 | 18114 ft | 391 kts | 222° |
| 2026-05-03 20:38 | 37.30960 | 22.25296 | 17587 ft | 381 kts | 224° |
| 2026-05-03 20:39 | 37.28922 | 22.23241 | 17175 ft | 371 kts | 225° |
| 2026-05-03 20:39 | 37.26965 | 22.21217 | 16405 ft | 376 kts | 220° |
| 2026-05-03 20:39 | 37.24980 | 22.19183 | 16163 ft | 392 kts | 220° |
| 2026-05-03 20:39 | 37.22866 | 22.17040 | 16283 ft | 383 kts | 223° |
| 2026-05-03 20:40 | 37.20796 | 22.14951 | 16003 ft | 382 kts | 224° |
| 2026-05-03 20:40 | 37.18736 | 22.12868 | 15627 ft | 379 kts | 224° |
| 2026-05-03 20:40 | 37.16685 | 22.10797 | 15195 ft | 377 kts | 224° |
| 2026-05-03 20:40 | 37.14644 | 22.08738 | 14746 ft | 377 kts | 223° |
| 2026-05-03 20:41 | 37.12572 | 22.06650 | 14281 ft | 377 kts | 223° |
| 2026-05-03 20:41 | 37.10527 | 22.04592 | 13802 ft | 377 kts | 223° |
| 2026-05-03 20:41 | 37.08407 | 22.02669 | 13271 ft | 381 kts | 212° |
| 2026-05-03 20:41 | 37.05893 | 22.01545 | 12882 ft | 377 kts | 192° |
| 2026-05-03 20:42 | 37.03315 | 22.01502 | 12613 ft | 368 kts | 172° |
| 2026-05-03 20:42 | 37.00921 | 22.02453 | 12396 ft | 355 kts | 156° |
| 2026-05-03 20:42 | 36.98676 | 22.03694 | 12207 ft | 342 kts | 158° |
| 2026-05-03 20:42 | 36.96465 | 22.04616 | 12019 ft | 328 kts | 165° |
| 2026-05-03 20:43 | 36.94268 | 22.05307 | 11673 ft | 322 kts | 168° |
| 2026-05-03 20:43 | 36.92081 | 22.05897 | 11179 ft | 321 kts | 169° |
| 2026-05-03 20:43 | 36.89897 | 22.06442 | 10778 ft | 318 kts | 169° |
| 2026-05-03 20:43 | 36.87727 | 22.06961 | 10338 ft | 317 kts | 169° |
| 2026-05-03 20:44 | 36.85574 | 22.07466 | 9925 ft | 313 kts | 169° |
| 2026-05-03 20:44 | 36.83415 | 22.07972 | 9487 ft | 310 kts | 169° |
| 2026-05-03 20:44 | 36.81308 | 22.08461 | 9034 ft | 307 kts | 169° |
| 2026-05-03 20:44 | 36.79216 | 22.08945 | 8621 ft | 304 kts | 169° |
| 2026-05-03 20:45 | 36.77140 | 22.09427 | 8177 ft | 302 kts | 169° |
| 2026-05-03 20:45 | 36.75082 | 22.09903 | 7755 ft | 300 kts | 169° |
| 2026-05-03 20:45 | 36.73054 | 22.10368 | 7471 ft | 292 kts | 169° |
| 2026-05-03 20:45 | 36.71067 | 22.10646 | 7165 ft | 286 kts | 186° |
| 2026-05-03 20:46 | 36.69221 | 22.09858 | 6729 ft | 280 kts | 217° |
| 2026-05-03 20:46 | 36.67966 | 22.08077 | 6234 ft | 273 kts | 248° |
| 2026-05-03 20:46 | 36.67626 | 22.05800 | 5721 ft | 265 kts | 279° |
| 2026-05-03 20:46 | 36.68199 | 22.03657 | 5225 ft | 261 kts | 302° |
| 2026-05-03 20:47 | 36.69362 | 22.01951 | 4713 ft | 259 kts | 323° |
| 2026-05-03 20:47 | 36.70952 | 22.00943 | 4241 ft | 258 kts | 346° |
| 2026-05-03 20:47 | 36.72717 | 22.00827 | 3867 ft | 253 kts | 10° |
| 2026-05-03 20:47 | 36.74324 | 22.01602 | 3585 ft | 246 kts | 32° |
| 2026-05-03 20:48 | 36.75699 | 22.02829 | 3319 ft | 240 kts | 37° |
| 2026-05-03 20:48 | 36.77023 | 22.04062 | 3052 ft | 234 kts | 36° |
| 2026-05-03 20:48 | 36.78310 | 22.05229 | 2933 ft | 222 kts | 36° |
| 2026-05-03 20:48 | 36.79567 | 22.06351 | 2935 ft | 224 kts | 36° |
| 2026-05-03 20:49 | 36.80858 | 22.07439 | 2954 ft | 224 kts | 30° |
| 2026-05-03 20:49 | 36.82326 | 22.08049 | 2963 ft | 225 kts | 6° |
| 2026-05-03 20:49 | 36.83890 | 22.07984 | 2981 ft | 226 kts | 353° |
| 2026-05-03 20:49 | 36.85424 | 22.07532 | 2981 ft | 226 kts | 349° |
| 2026-05-03 20:50 | 36.86968 | 22.07171 | 2986 ft | 226 kts | 350° |
| 2026-05-03 20:50 | 36.88499 | 22.06812 | 2978 ft | 217 kts | 351° |
| 2026-05-03 20:50 | 36.89914 | 22.06482 | 2998 ft | 192 kts | 351° |
| 2026-05-03 20:50 | 36.91141 | 22.06196 | 2915 ft | 175 kts | 351° |
| 2026-05-03 20:51 | 36.92312 | 22.05923 | 2725 ft | 163 kts | 351° |
| 2026-05-03 20:51 | 36.93401 | 22.05670 | 2511 ft | 159 kts | 351° |
| 2026-05-03 20:51 | 36.94120 | 22.05503 | 2385 ft | 159 kts | 351° |
| 2026-05-03 20:51 | 36.95210 | 22.05249 | 2208 ft | 160 kts | 351° |
| 2026-05-03 20:52 | 36.96306 | 22.04993 | 1997 ft | 160 kts | 351° |
| 2026-05-03 20:52 | 36.97390 | 22.04740 | 1783 ft | 152 kts | 351° |
| 2026-05-03 20:52 | 36.98337 | 22.04520 | 1564 ft | 140 kts | 351° |
| 2026-05-03 20:52 | 36.99266 | 22.04303 | 1355 ft | 138 kts | 350° |
| 2026-05-03 20:53 | 37.00205 | 22.04083 | 1163 ft | 137 kts | 348° |
| 2026-05-03 20:53 | 37.01136 | 22.03870 | 1005 ft | 135 kts | 348° |
| 2026-05-03 20:53 | 37.02053 | 22.03655 | 799 ft | 133 kts | 348° |
| 2026-05-03 20:53 | 37.02961 | 22.03438 | 584 ft | 132 kts | 350° |
| 2026-05-03 20:54 | 37.03861 | 22.03232 | 428 ft | 132 kts | 350° |
| 2026-05-03 20:54 | 37.05658 | 22.02813 | 82 ft | 130 kts | 350° |
| 2026-05-03 20:54 | 37.06515 | 22.02618 | 37 ft | 113 kts | 349° |
| 2026-05-03 20:55 | 37.06995 | 22.02503 | 39 ft | 41 kts | 349° |
| 2026-05-03 20:55 | 37.07259 | 22.02442 | 37 ft | 38 kts | 349° |
| 2026-05-03 20:55 | 37.07476 | 22.02393 | 37 ft | 13 kts | 350° |
| 2026-05-03 20:55 | 37.07570 | 22.02372 | 38 ft | 15 kts | 350° |
| 2026-05-03 20:56 | 37.07690 | 22.02344 | 38 ft | 20 kts | 349° |
| 2026-05-03 20:56 | 37.07844 | 22.02308 | 39 ft | 24 kts | 348° |
| 2026-05-03 20:56 | 37.07853 | 22.02426 | 40 ft | 25 kts | 166° |
| 2026-05-03 20:56 | 37.07676 | 22.02471 | 39 ft | 27 kts | 169° |
| 2026-05-03 20:57 | 37.07490 | 22.02514 | 39 ft | 28 kts | 169° |
| 2026-05-03 20:57 | 37.07296 | 22.02559 | 39 ft | 29 kts | 169° |
| 2026-05-03 20:57 | 37.07093 | 22.02608 | 39 ft | 30 kts | 169° |
| 2026-05-03 20:57 | 37.06883 | 22.02658 | 39 ft | 31 kts | 169° |
| 2026-05-03 20:58 | 37.06665 | 22.02708 | 36 ft | 33 kts | 168° |
| 2026-05-03 20:58 | 37.06438 | 22.02762 | 39 ft | 34 kts | 169° |
| 2026-05-03 20:58 | 37.06203 | 22.02816 | 39 ft | 35 kts | 169° |
| 2026-05-03 20:58 | 37.05961 | 22.02872 | 39 ft | 36 kts | 169° |
| 2026-05-03 20:59 | 37.05749 | 22.02921 | 39 ft | 30 kts | 169° |
| 2026-05-03 20:59 | 37.05589 | 22.02959 | 39 ft | 15 kts | 168° |
| 2026-05-03 20:59 | 37.05533 | 22.03068 | 40 ft | 17 kts | 105° |
| 2026-05-03 20:59 | 37.05514 | 22.03155 | 38 ft | 0 kts | 104° |
| 2026-05-03 21:00 | 37.05514 | 22.03157 | 40 ft | 2 kts | 104° |
| 2026-05-03 21:00 | 37.05517 | 22.03204 | 40 ft | 4 kts | 83° |
| 2026-05-03 21:00 | 37.05502 | 22.03248 | 40 ft | 6 kts | 112° |
| 2026-05-03 21:01 | 37.05527 | 22.03266 | 38 ft | 0 kts | 298° |
| 2026-05-03 21:01 | 37.05528 | 22.03263 | 38 ft | 2 kts | 306° |
| 2026-05-03 21:01 | 37.05534 | 22.03252 | 40 ft | 0 kts | 304° |
| 2026-05-03 21:01 | 37.05535 | 22.03251 | 40 ft | 0 kts | 300° |